sensor_id;sensor_type;location;lat;lon;timestamp;pressure;altitude;pressure_sealevel;temperature;humidity
76987;BME280;65922;50.086;8.598;2022-12-20T00:00:13;101270;;;-0.1;95.6
76987;BME280;65922;50.086;8.598;2022-12-20T00:01:13;101260;;;-0.2;95.6
76987;BME280;65922;50.086;8.598;2022-12-20T00:02:13;101270;;;-0.2;95.6
76987;BME280;65922;50.086;8.598;2022-12-20T00:03:13;101260;;;-0.2;95.5
76987;BME280;65922;50.086;8.598;2022-12-20T00:04:12;101260;;;-0.2;95.6
76987;BME280;65922;50.086;8.598;2022-12-20T00:05:12;101260;;;-0.3;95.6
76987;BME280;65922;50.086;8.598;2022-12-20T00:06:12;101250;;;-0.3;95.6
76987;BME280;65922;50.086;8.598;2022-12-20T00:07:12;101250;;;-0.2;95.6
76987;BME280;65922;50.086;8.598;2022-12-20T00:08:12;101250;;;-0.1;95.6
76987;BME280;65922;50.086;8.598;2022-12-20T00:09:12;101240;;;-0.1;95.6
76987;BME280;65922;50.086;8.598;2022-12-20T00:10:12;101250;;;-0.1;95.6
76987;BME280;65922;50.086;8.598;2022-12-20T00:11:12;101250;;;-0.1;95.6
76987;BME280;65922;50.086;8.598;2022-12-20T00:12:12;101250;;;-0.1;95.6
76987;BME280;65922;50.086;8.598;2022-12-20T00:13:12;101240;;;-0.1;95.6
76987;BME280;65922;50.086;8.598;2022-12-20T00:14:12;101240;;;-0.2;95.6
76987;BME280;65922;50.086;8.598;2022-12-20T00:15:15;101240;;;-0.2;95.6
76987;BME280;65922;50.086;8.598;2022-12-20T00:16:13;101240;;;-0.2;95.6
76987;BME280;65922;50.086;8.598;2022-12-20T00:17:12;101230;;;-0.3;95.7
76987;BME280;65922;50.086;8.598;2022-12-20T00:18:12;101220;;;-0.3;95.6
76987;BME280;65922;50.086;8.598;2022-12-20T00:19:12;101230;;;-0.2;95.6
76987;BME280;65922;50.086;8.598;2022-12-20T00:20:12;101220;;;-0.2;95.6
76987;BME280;65922;50.086;8.598;2022-12-20T00:21:13;101230;;;-0.2;95.6
76987;BME280;65922;50.086;8.598;2022-12-20T00:22:12;101220;;;-0.2;95.6
76987;BME280;65922;50.086;8.598;2022-12-20T00:23:12;101220;;;-0.2;95.6
76987;BME280;65922;50.086;8.598;2022-12-20T00:24:12;101220;;;-0.2;95.6
76987;BME280;65922;50.086;8.598;2022-12-20T00:25:13;101220;;;-0.3;95.7
76987;BME280;65922;50.086;8.598;2022-12-20T00:26:13;101220;;;-0.3;95.6
76987;BME280;65922;50.086;8.598;2022-12-20T00:27:12;101220;;;-0.2;95.7
76987;BME280;65922;50.086;8.598;2022-12-20T00:28:12;101220;;;-0.1;95.7
76987;BME280;65922;50.086;8.598;2022-12-20T00:29:12;101220;;;-0.1;95.7
76987;BME280;65922;50.086;8.598;2022-12-20T00:30:12;101220;;;-0.1;95.7
76987;BME280;65922;50.086;8.598;2022-12-20T00:31:13;101210;;;-0.1;95.7
76987;BME280;65922;50.086;8.598;2022-12-20T00:32:12;101210;;;-0.1;95.7
76987;BME280;65922;50.086;8.598;2022-12-20T00:33:12;101220;;;-0.1;95.7
76987;BME280;65922;50.086;8.598;2022-12-20T00:34:12;101220;;;-0.1;95.7
76987;BME280;65922;50.086;8.598;2022-12-20T00:35:13;101220;;;-0.1;95.7
76987;BME280;65922;50.086;8.598;2022-12-20T00:36:12;101220;;;-0.2;95.7
76987;BME280;65922;50.086;8.598;2022-12-20T00:37:12;101210;;;-0.2;95.7
76987;BME280;65922;50.086;8.598;2022-12-20T00:38:12;101210;;;-0.2;95.7
76987;BME280;65922;50.086;8.598;2022-12-20T00:39:13;101210;;;-0.2;95.7
76987;BME280;65922;50.086;8.598;2022-12-20T00:40:12;101210;;;-0.3;95.7
76987;BME280;65922;50.086;8.598;2022-12-20T00:41:13;101210;;;-0.2;95.7
76987;BME280;65922;50.086;8.598;2022-12-20T00:42:12;101220;;;-0.3;95.7
76987;BME280;65922;50.086;8.598;2022-12-20T00:43:12;101210;;;-0.3;95.7
76987;BME280;65922;50.086;8.598;2022-12-20T00:44:12;101210;;;-0.2;95.7
76987;BME280;65922;50.086;8.598;2022-12-20T00:45:13;101220;;;-0.2;95.7
76987;BME280;65922;50.086;8.598;2022-12-20T00:46:13;101210;;;-0.1;95.7
76987;BME280;65922;50.086;8.598;2022-12-20T00:47:13;101210;;;-0.2;95.7
76987;BME280;65922;50.086;8.598;2022-12-20T00:48:12;101220;;;-0.2;95.7
76987;BME280;65922;50.086;8.598;2022-12-20T00:49:12;101210;;;-0.2;95.7
76987;BME280;65922;50.086;8.598;2022-12-20T00:50:12;101200;;;-0.2;95.7
76987;BME280;65922;50.086;8.598;2022-12-20T00:51:13;101200;;;-0.2;95.7
76987;BME280;65922;50.086;8.598;2022-12-20T00:52:12;101210;;;-0.2;95.7
76987;BME280;65922;50.086;8.598;2022-12-20T00:53:12;101200;;;-0.2;95.7
76987;BME280;65922;50.086;8.598;2022-12-20T00:54:12;101200;;;-0.2;95.7
76987;BME280;65922;50.086;8.598;2022-12-20T00:55:12;101190;;;-0.2;95.7
76987;BME280;65922;50.086;8.598;2022-12-20T00:56:12;101190;;;-0.2;95.7
76987;BME280;65922;50.086;8.598;2022-12-20T00:57:12;101190;;;-0.2;95.7
76987;BME280;65922;50.086;8.598;2022-12-20T00:58:12;101200;;;-0.2;95.7
76987;BME280;65922;50.086;8.598;2022-12-20T00:59:12;101200;;;-0.1;95.7
76987;BME280;65922;50.086;8.598;2022-12-20T01:00:13;101190;;;-0.1;95.7
76987;BME280;65922;50.086;8.598;2022-12-20T01:01:14;101200;;;0;95.7
76987;BME280;65922;50.086;8.598;2022-12-20T01:02:12;101200;;;0;95.7
76987;BME280;65922;50.086;8.598;2022-12-20T01:03:12;101210;;;0;95.8
76987;BME280;65922;50.086;8.598;2022-12-20T01:04:12;101200;;;0;95.7
76987;BME280;65922;50.086;8.598;2022-12-20T01:05:12;101200;;;0;95.7
76987;BME280;65922;50.086;8.598;2022-12-20T01:06:12;101200;;;-0.1;95.7
76987;BME280;65922;50.086;8.598;2022-12-20T01:07:12;101200;;;-0.1;95.7
76987;BME280;65922;50.086;8.598;2022-12-20T01:08:12;101210;;;-0.1;95.7
76987;BME280;65922;50.086;8.598;2022-12-20T01:09:12;101210;;;-0.1;95.7
76987;BME280;65922;50.086;8.598;2022-12-20T01:10:12;101210;;;0;95.7
76987;BME280;65922;50.086;8.598;2022-12-20T01:11:14;101200;;;0;95.8
76987;BME280;65922;50.086;8.598;2022-12-20T01:12:12;101210;;;0;95.8
76987;BME280;65922;50.086;8.598;2022-12-20T01:13:12;101200;;;0;95.8
76987;BME280;65922;50.086;8.598;2022-12-20T01:14:13;101210;;;-0.1;95.7
76987;BME280;65922;50.086;8.598;2022-12-20T01:15:12;101200;;;-0.1;95.7
76987;BME280;65922;50.086;8.598;2022-12-20T01:16:14;101200;;;-0.1;95.7
76987;BME280;65922;50.086;8.598;2022-12-20T01:17:12;101210;;;-0.1;95.8
76987;BME280;65922;50.086;8.598;2022-12-20T01:18:12;101210;;;-0.1;95.8
76987;BME280;65922;50.086;8.598;2022-12-20T01:19:13;101210;;;-0.1;95.7
76987;BME280;65922;50.086;8.598;2022-12-20T01:20:12;101210;;;-0.1;95.7
76987;BME280;65922;50.086;8.598;2022-12-20T01:21:13;101210;;;0;95.8
76987;BME280;65922;50.086;8.598;2022-12-20T01:22:12;101200;;;0;95.8
76987;BME280;65922;50.086;8.598;2022-12-20T01:23:12;101200;;;0;95.8
76987;BME280;65922;50.086;8.598;2022-12-20T01:24:13;101200;;;-0.1;95.8
76987;BME280;65922;50.086;8.598;2022-12-20T01:25:12;101200;;;-0.1;95.8
76987;BME280;65922;50.086;8.598;2022-12-20T01:26:13;101200;;;-0.1;95.8
76987;BME280;65922;50.086;8.598;2022-12-20T01:27:12;101200;;;-0.1;95.8
76987;BME280;65922;50.086;8.598;2022-12-20T01:28:12;101200;;;-0.1;95.8
76987;BME280;65922;50.086;8.598;2022-12-20T01:29:12;101190;;;-0.1;95.8
76987;BME280;65922;50.086;8.598;2022-12-20T01:30:12;101200;;;0;95.8
76987;BME280;65922;50.086;8.598;2022-12-20T01:31:13;101190;;;0;95.8
76987;BME280;65922;50.086;8.598;2022-12-20T01:32:12;101200;;;0;95.8
76987;BME280;65922;50.086;8.598;2022-12-20T01:33:12;101200;;;-0.1;95.8
76987;BME280;65922;50.086;8.598;2022-12-20T01:34:12;101210;;;-0.1;95.8
76987;BME280;65922;50.086;8.598;2022-12-20T01:35:12;101210;;;-0.1;95.8
76987;BME280;65922;50.086;8.598;2022-12-20T01:36:14;101210;;;-0.1;95.8
76987;BME280;65922;50.086;8.598;2022-12-20T01:37:12;101210;;;-0.1;95.8
76987;BME280;65922;50.086;8.598;2022-12-20T01:38:12;101200;;;-0.1;95.8
76987;BME280;65922;50.086;8.598;2022-12-20T01:39:13;101200;;;-0.1;95.8
76987;BME280;65922;50.086;8.598;2022-12-20T01:40:12;101200;;;-0.2;95.9
76987;BME280;65922;50.086;8.598;2022-12-20T01:41:13;101210;;;-0.2;95.8
76987;BME280;65922;50.086;8.598;2022-12-20T01:42:13;101210;;;-0.2;95.8
76987;BME280;65922;50.086;8.598;2022-12-20T01:43:13;101210;;;-0.2;95.8
76987;BME280;65922;50.086;8.598;2022-12-20T01:45:14;101200;;;-0.2;95.8
76987;BME280;65922;50.086;8.598;2022-12-20T01:45:19;101210;;;-0.2;95.8
76987;BME280;65922;50.086;8.598;2022-12-20T01:46:13;101210;;;-0.1;95.8
76987;BME280;65922;50.086;8.598;2022-12-20T01:47:12;101210;;;-0.1;95.8
76987;BME280;65922;50.086;8.598;2022-12-20T01:48:13;101200;;;-0.1;95.8
76987;BME280;65922;50.086;8.598;2022-12-20T01:49:14;101200;;;-0.1;95.8
76987;BME280;65922;50.086;8.598;2022-12-20T01:50:12;101190;;;-0.1;95.8
76987;BME280;65922;50.086;8.598;2022-12-20T01:51:12;101200;;;-0.2;95.8
76987;BME280;65922;50.086;8.598;2022-12-20T01:52:13;101200;;;-0.2;95.8
76987;BME280;65922;50.086;8.598;2022-12-20T01:53:13;101200;;;-0.1;95.8
76987;BME280;65922;50.086;8.598;2022-12-20T01:54:13;101200;;;0;95.8
76987;BME280;65922;50.086;8.598;2022-12-20T01:55:15;101200;;;0;95.8
76987;BME280;65922;50.086;8.598;2022-12-20T01:56:12;101200;;;0;95.8
76987;BME280;65922;50.086;8.598;2022-12-20T01:57:13;101190;;;-0.1;95.8
76987;BME280;65922;50.086;8.598;2022-12-20T01:58:13;101190;;;-0.2;95.8
76987;BME280;65922;50.086;8.598;2022-12-20T01:59:13;101190;;;-0.2;95.8
76987;BME280;65922;50.086;8.598;2022-12-20T02:00:13;101180;;;-0.1;95.8
76987;BME280;65922;50.086;8.598;2022-12-20T02:01:13;101180;;;0;95.8
76987;BME280;65922;50.086;8.598;2022-12-20T02:02:15;101180;;;0.1;95.8
76987;BME280;65922;50.086;8.598;2022-12-20T02:03:13;101180;;;0;95.8
76987;BME280;65922;50.086;8.598;2022-12-20T02:04:12;101170;;;0;95.8
76987;BME280;65922;50.086;8.598;2022-12-20T02:05:13;101170;;;0.1;95.8
76987;BME280;65922;50.086;8.598;2022-12-20T02:06:15;101180;;;0.1;95.8
76987;BME280;65922;50.086;8.598;2022-12-20T02:07:14;101180;;;0;95.8
76987;BME280;65922;50.086;8.598;2022-12-20T02:08:13;101180;;;0;95.8
76987;BME280;65922;50.086;8.598;2022-12-20T02:09:12;101190;;;0;95.9
76987;BME280;65922;50.086;8.598;2022-12-20T02:10:12;101180;;;0;95.8
76987;BME280;65922;50.086;8.598;2022-12-20T02:11:16;101170;;;-0.1;95.8
76987;BME280;65922;50.086;8.598;2022-12-20T02:12:13;101180;;;-0.1;95.8
76987;BME280;65922;50.086;8.598;2022-12-20T02:13:17;101170;;;-0.2;95.8
76987;BME280;65922;50.086;8.598;2022-12-20T02:14:13;101170;;;-0.1;95.8
76987;BME280;65922;50.086;8.598;2022-12-20T02:15:18;101170;;;-0.2;95.8
76987;BME280;65922;50.086;8.598;2022-12-20T02:16:13;101160;;;-0.2;95.8
76987;BME280;65922;50.086;8.598;2022-12-20T02:17:14;101150;;;-0.3;95.8
76987;BME280;65922;50.086;8.598;2022-12-20T02:18:15;101150;;;-0.3;95.9
76987;BME280;65922;50.086;8.598;2022-12-20T02:19:17;101150;;;-0.3;95.9
76987;BME280;65922;50.086;8.598;2022-12-20T02:20:18;101150;;;-0.3;95.8
76987;BME280;65922;50.086;8.598;2022-12-20T02:21:14;101150;;;-0.3;95.9
76987;BME280;65922;50.086;8.598;2022-12-20T02:22:14;101140;;;-0.2;95.8
76987;BME280;65922;50.086;8.598;2022-12-20T02:23:15;101140;;;-0.2;95.8
76987;BME280;65922;50.086;8.598;2022-12-20T02:24:24;101140;;;-0.2;95.9
76987;BME280;65922;50.086;8.598;2022-12-20T02:25:16;101150;;;-0.2;95.8
76987;BME280;65922;50.086;8.598;2022-12-20T02:26:16;101150;;;-0.2;95.9
76987;BME280;65922;50.086;8.598;2022-12-20T02:27:17;101150;;;-0.2;95.9
76987;BME280;65922;50.086;8.598;2022-12-20T02:28:15;101140;;;-0.1;95.9
76987;BME280;65922;50.086;8.598;2022-12-20T02:29:19;101140;;;-0.1;95.9
76987;BME280;65922;50.086;8.598;2022-12-20T02:30:13;101140;;;-0.2;95.9
76987;BME280;65922;50.086;8.598;2022-12-20T02:31:13;101130;;;-0.2;95.9
76987;BME280;65922;50.086;8.598;2022-12-20T02:32:13;101130;;;-0.2;95.9
76987;BME280;65922;50.086;8.598;2022-12-20T02:33:13;101130;;;-0.2;95.9
76987;BME280;65922;50.086;8.598;2022-12-20T02:34:12;101130;;;-0.1;95.9
76987;BME280;65922;50.086;8.598;2022-12-20T02:35:13;101130;;;-0.1;95.9
76987;BME280;65922;50.086;8.598;2022-12-20T02:36:13;101130;;;-0.1;95.9
76987;BME280;65922;50.086;8.598;2022-12-20T02:37:12;101130;;;-0.1;95.9
76987;BME280;65922;50.086;8.598;2022-12-20T02:38:28;101120;;;-0.1;95.8
76987;BME280;65922;50.086;8.598;2022-12-20T02:39:13;101120;;;-0.1;95.9
76987;BME280;65922;50.086;8.598;2022-12-20T02:40:13;101130;;;-0.1;95.9
76987;BME280;65922;50.086;8.598;2022-12-20T02:41:13;101140;;;-0.1;95.9
76987;BME280;65922;50.086;8.598;2022-12-20T02:42:13;101130;;;-0.1;95.9
76987;BME280;65922;50.086;8.598;2022-12-20T02:43:12;101140;;;-0.1;95.9
76987;BME280;65922;50.086;8.598;2022-12-20T02:44:13;101130;;;-0.1;95.9
76987;BME280;65922;50.086;8.598;2022-12-20T02:45:12;101130;;;0;95.9
76987;BME280;65922;50.086;8.598;2022-12-20T02:46:12;101130;;;0;95.9
76987;BME280;65922;50.086;8.598;2022-12-20T02:47:14;101130;;;-0.1;95.9
76987;BME280;65922;50.086;8.598;2022-12-20T02:48:12;101120;;;-0.1;95.9
76987;BME280;65922;50.086;8.598;2022-12-20T02:49:13;101120;;;-0.1;95.9
76987;BME280;65922;50.086;8.598;2022-12-20T02:50:12;101120;;;-0.1;95.9
76987;BME280;65922;50.086;8.598;2022-12-20T02:51:12;101120;;;-0.1;95.9
76987;BME280;65922;50.086;8.598;2022-12-20T02:52:12;101120;;;-0.1;95.9
76987;BME280;65922;50.086;8.598;2022-12-20T02:53:13;101130;;;-0.1;95.9
76987;BME280;65922;50.086;8.598;2022-12-20T02:54:12;101120;;;-0.1;95.9
76987;BME280;65922;50.086;8.598;2022-12-20T02:55:12;101110;;;-0.1;95.9
76987;BME280;65922;50.086;8.598;2022-12-20T02:56:15;101110;;;-0.1;95.9
76987;BME280;65922;50.086;8.598;2022-12-20T02:57:13;101110;;;-0.2;95.9
76987;BME280;65922;50.086;8.598;2022-12-20T02:58:15;101120;;;-0.2;95.9
76987;BME280;65922;50.086;8.598;2022-12-20T02:59:13;101110;;;-0.3;95.9
76987;BME280;65922;50.086;8.598;2022-12-20T03:00:13;101110;;;-0.2;95.9
76987;BME280;65922;50.086;8.598;2022-12-20T03:01:15;101110;;;-0.3;95.9
76987;BME280;65922;50.086;8.598;2022-12-20T03:02:12;101110;;;-0.2;95.9
76987;BME280;65922;50.086;8.598;2022-12-20T03:03:12;101110;;;-0.2;95.9
76987;BME280;65922;50.086;8.598;2022-12-20T03:04:12;101110;;;-0.1;95.9
76987;BME280;65922;50.086;8.598;2022-12-20T03:05:12;101100;;;-0.1;95.9
76987;BME280;65922;50.086;8.598;2022-12-20T03:06:12;101090;;;-0.2;95.9
76987;BME280;65922;50.086;8.598;2022-12-20T03:07:13;101100;;;-0.2;95.9
76987;BME280;65922;50.086;8.598;2022-12-20T03:08:13;101100;;;-0.2;95.9
76987;BME280;65922;50.086;8.598;2022-12-20T03:09:12;101100;;;-0.1;95.9
76987;BME280;65922;50.086;8.598;2022-12-20T03:10:12;101110;;;-0.1;96
76987;BME280;65922;50.086;8.598;2022-12-20T03:11:12;101110;;;-0.1;96
76987;BME280;65922;50.086;8.598;2022-12-20T03:12:13;101110;;;-0.1;95.9
76987;BME280;65922;50.086;8.598;2022-12-20T03:13:12;101100;;;0;96
76987;BME280;65922;50.086;8.598;2022-12-20T03:14:12;101100;;;0;96
76987;BME280;65922;50.086;8.598;2022-12-20T03:15:13;101110;;;0;95.9
76987;BME280;65922;50.086;8.598;2022-12-20T03:16:12;101120;;;0;96
76987;BME280;65922;50.086;8.598;2022-12-20T03:17:12;101110;;;0.1;96
76987;BME280;65922;50.086;8.598;2022-12-20T03:18:12;101110;;;0.1;96
76987;BME280;65922;50.086;8.598;2022-12-20T03:19:12;101110;;;0.1;95.9
76987;BME280;65922;50.086;8.598;2022-12-20T03:20:12;101100;;;0;95.9
76987;BME280;65922;50.086;8.598;2022-12-20T03:21:12;101100;;;0;96
76987;BME280;65922;50.086;8.598;2022-12-20T03:22:12;101110;;;-0.1;95.9
76987;BME280;65922;50.086;8.598;2022-12-20T03:23:12;101110;;;0;96
76987;BME280;65922;50.086;8.598;2022-12-20T03:24:12;101110;;;0.1;95.9
76987;BME280;65922;50.086;8.598;2022-12-20T03:25:12;101110;;;0.1;96
76987;BME280;65922;50.086;8.598;2022-12-20T03:26:12;101110;;;0.1;95.9
76987;BME280;65922;50.086;8.598;2022-12-20T03:27:12;101110;;;0.1;96
76987;BME280;65922;50.086;8.598;2022-12-20T03:28:13;101100;;;0.1;96
76987;BME280;65922;50.086;8.598;2022-12-20T03:29:12;101100;;;0.1;96
76987;BME280;65922;50.086;8.598;2022-12-20T03:30:13;101100;;;0.1;96
76987;BME280;65922;50.086;8.598;2022-12-20T03:31:13;101110;;;0.1;96
76987;BME280;65922;50.086;8.598;2022-12-20T03:32:13;101110;;;0.1;96
76987;BME280;65922;50.086;8.598;2022-12-20T03:33:12;101110;;;0.1;96
76987;BME280;65922;50.086;8.598;2022-12-20T03:34:12;101100;;;0.1;96
76987;BME280;65922;50.086;8.598;2022-12-20T03:35:12;101100;;;0.1;96
76987;BME280;65922;50.086;8.598;2022-12-20T03:36:13;101110;;;0.1;96
76987;BME280;65922;50.086;8.598;2022-12-20T03:37:12;101100;;;0;96
76987;BME280;65922;50.086;8.598;2022-12-20T03:38:12;101110;;;0;96
76987;BME280;65922;50.086;8.598;2022-12-20T03:39:12;101110;;;0.1;96
76987;BME280;65922;50.086;8.598;2022-12-20T03:40:13;101110;;;0.1;96
76987;BME280;65922;50.086;8.598;2022-12-20T03:41:13;101100;;;0.1;96
76987;BME280;65922;50.086;8.598;2022-12-20T03:42:12;101100;;;0;96
76987;BME280;65922;50.086;8.598;2022-12-20T03:43:13;101100;;;0.1;96
76987;BME280;65922;50.086;8.598;2022-12-20T03:44:12;101100;;;0.1;96
76987;BME280;65922;50.086;8.598;2022-12-20T03:45:13;101090;;;0.1;96
76987;BME280;65922;50.086;8.598;2022-12-20T03:46:13;101090;;;0.1;96
76987;BME280;65922;50.086;8.598;2022-12-20T03:47:12;101080;;;0.1;96
76987;BME280;65922;50.086;8.598;2022-12-20T03:48:12;101090;;;0;96
76987;BME280;65922;50.086;8.598;2022-12-20T03:49:12;101090;;;0.1;96
76987;BME280;65922;50.086;8.598;2022-12-20T03:50:12;101090;;;0;96
76987;BME280;65922;50.086;8.598;2022-12-20T03:51:12;101090;;;0.1;96
76987;BME280;65922;50.086;8.598;2022-12-20T03:52:13;101080;;;0.1;96
76987;BME280;65922;50.086;8.598;2022-12-20T03:53:12;101070;;;0.2;96
76987;BME280;65922;50.086;8.598;2022-12-20T03:54:12;101070;;;0.2;96
76987;BME280;65922;50.086;8.598;2022-12-20T03:55:13;101070;;;0.2;96
76987;BME280;65922;50.086;8.598;2022-12-20T03:56:17;101070;;;0.2;96
76987;BME280;65922;50.086;8.598;2022-12-20T03:57:12;101070;;;0.1;96
76987;BME280;65922;50.086;8.598;2022-12-20T03:58:12;101080;;;0.1;96
76987;BME280;65922;50.086;8.598;2022-12-20T03:59:13;101070;;;0;96
76987;BME280;65922;50.086;8.598;2022-12-20T04:00:13;101070;;;0;96.1
76987;BME280;65922;50.086;8.598;2022-12-20T04:01:20;101080;;;0.1;96
76987;BME280;65922;50.086;8.598;2022-12-20T04:02:12;101080;;;0.1;96
76987;BME280;65922;50.086;8.598;2022-12-20T04:03:12;101090;;;0.1;96
76987;BME280;65922;50.086;8.598;2022-12-20T04:04:13;101100;;;0.1;96.1
76987;BME280;65922;50.086;8.598;2022-12-20T04:05:12;101090;;;0.2;96
76987;BME280;65922;50.086;8.598;2022-12-20T04:06:12;101090;;;0.2;96
76987;BME280;65922;50.086;8.598;2022-12-20T04:07:12;101090;;;0.2;96
76987;BME280;65922;50.086;8.598;2022-12-20T04:08:12;101100;;;0.2;96
76987;BME280;65922;50.086;8.598;2022-12-20T04:09:13;101100;;;0.2;96
76987;BME280;65922;50.086;8.598;2022-12-20T04:10:12;101100;;;0.1;96
76987;BME280;65922;50.086;8.598;2022-12-20T04:11:13;101100;;;0.1;96
76987;BME280;65922;50.086;8.598;2022-12-20T04:12:12;101100;;;0;96.1
76987;BME280;65922;50.086;8.598;2022-12-20T04:13:12;101100;;;0.1;96
76987;BME280;65922;50.086;8.598;2022-12-20T04:14:13;101090;;;0.1;96
76987;BME280;65922;50.086;8.598;2022-12-20T04:15:12;101080;;;0.1;96
76987;BME280;65922;50.086;8.598;2022-12-20T04:16:13;101080;;;0.1;96.1
76987;BME280;65922;50.086;8.598;2022-12-20T04:17:12;101080;;;0;96
76987;BME280;65922;50.086;8.598;2022-12-20T04:18:12;101080;;;0.1;96
76987;BME280;65922;50.086;8.598;2022-12-20T04:19:14;101090;;;0.1;96.1
76987;BME280;65922;50.086;8.598;2022-12-20T04:20:13;101090;;;0;96
76987;BME280;65922;50.086;8.598;2022-12-20T04:21:13;101090;;;0.1;96.1
76987;BME280;65922;50.086;8.598;2022-12-20T04:22:12;101090;;;0.2;96.1
76987;BME280;65922;50.086;8.598;2022-12-20T04:23:12;101080;;;0.2;96.1
76987;BME280;65922;50.086;8.598;2022-12-20T04:24:12;101080;;;0.2;96
76987;BME280;65922;50.086;8.598;2022-12-20T04:25:12;101080;;;0.2;96.1
76987;BME280;65922;50.086;8.598;2022-12-20T04:26:12;101080;;;0.2;96
76987;BME280;65922;50.086;8.598;2022-12-20T04:27:13;101080;;;0.1;96.1
76987;BME280;65922;50.086;8.598;2022-12-20T04:28:12;101070;;;0.1;96.1
76987;BME280;65922;50.086;8.598;2022-12-20T04:29:14;101060;;;0.2;96.1
76987;BME280;65922;50.086;8.598;2022-12-20T04:30:13;101070;;;0.2;96.1
76987;BME280;65922;50.086;8.598;2022-12-20T04:31:12;101080;;;0.2;96.1
76987;BME280;65922;50.086;8.598;2022-12-20T04:32:12;101070;;;0.2;96.1
76987;BME280;65922;50.086;8.598;2022-12-20T04:33:12;101060;;;0.2;96.1
76987;BME280;65922;50.086;8.598;2022-12-20T04:34:12;101070;;;0.1;96.1
76987;BME280;65922;50.086;8.598;2022-12-20T04:35:12;101060;;;0.1;96.1
76987;BME280;65922;50.086;8.598;2022-12-20T04:36:12;101060;;;0.1;96
76987;BME280;65922;50.086;8.598;2022-12-20T04:37:12;101060;;;0.1;96
76987;BME280;65922;50.086;8.598;2022-12-20T04:38:12;101060;;;0;96.1
76987;BME280;65922;50.086;8.598;2022-12-20T04:39:12;101060;;;0.1;96.1
76987;BME280;65922;50.086;8.598;2022-12-20T04:40:12;101060;;;0.1;96.1
76987;BME280;65922;50.086;8.598;2022-12-20T04:41:12;101050;;;0.1;96.1
76987;BME280;65922;50.086;8.598;2022-12-20T04:42:12;101050;;;0.1;96.1
76987;BME280;65922;50.086;8.598;2022-12-20T04:43:13;101050;;;0.1;96.1
76987;BME280;65922;50.086;8.598;2022-12-20T04:44:14;101050;;;0;96.1
76987;BME280;65922;50.086;8.598;2022-12-20T04:45:12;101050;;;0;96.1
76987;BME280;65922;50.086;8.598;2022-12-20T04:46:12;101030;;;0;96.1
76987;BME280;65922;50.086;8.598;2022-12-20T04:47:12;101030;;;-0.1;96
76987;BME280;65922;50.086;8.598;2022-12-20T04:48:12;101030;;;-0.1;96.1
76987;BME280;65922;50.086;8.598;2022-12-20T04:49:12;101020;;;-0.1;96.1
76987;BME280;65922;50.086;8.598;2022-12-20T04:50:12;101020;;;-0.1;96.1
76987;BME280;65922;50.086;8.598;2022-12-20T04:51:12;101020;;;0;96.1
76987;BME280;65922;50.086;8.598;2022-12-20T04:52:13;101030;;;0;96.1
76987;BME280;65922;50.086;8.598;2022-12-20T04:53:12;101020;;;0;96.1
76987;BME280;65922;50.086;8.598;2022-12-20T04:54:12;101040;;;0.1;96.1
76987;BME280;65922;50.086;8.598;2022-12-20T04:55:12;101030;;;0.1;96.1
76987;BME280;65922;50.086;8.598;2022-12-20T04:56:13;101040;;;0.1;96.1
76987;BME280;65922;50.086;8.598;2022-12-20T04:57:13;101050;;;0.1;96.1
76987;BME280;65922;50.086;8.598;2022-12-20T04:58:13;101050;;;0.2;96.1
76987;BME280;65922;50.086;8.598;2022-12-20T04:59:12;101050;;;0.2;96.1
76987;BME280;65922;50.086;8.598;2022-12-20T05:00:13;101060;;;0.2;96.1
76987;BME280;65922;50.086;8.598;2022-12-20T05:01:12;101070;;;0.2;96.1
76987;BME280;65922;50.086;8.598;2022-12-20T05:02:12;101070;;;0.2;96.1
76987;BME280;65922;50.086;8.598;2022-12-20T05:03:13;101060;;;0.2;96.1
76987;BME280;65922;50.086;8.598;2022-12-20T05:04:12;101050;;;0.3;96.1
76987;BME280;65922;50.086;8.598;2022-12-20T05:05:12;101060;;;0.3;96.1
76987;BME280;65922;50.086;8.598;2022-12-20T05:06:13;101060;;;0.3;96.1
76987;BME280;65922;50.086;8.598;2022-12-20T05:07:12;101060;;;0.3;96.1
76987;BME280;65922;50.086;8.598;2022-12-20T05:08:12;101050;;;0.3;96.1
76987;BME280;65922;50.086;8.598;2022-12-20T05:09:12;101060;;;0.3;96.1
76987;BME280;65922;50.086;8.598;2022-12-20T05:10:12;101050;;;0.3;96.1
76987;BME280;65922;50.086;8.598;2022-12-20T05:11:12;101060;;;0.2;96.1
76987;BME280;65922;50.086;8.598;2022-12-20T05:12:12;101070;;;0.3;96.1
76987;BME280;65922;50.086;8.598;2022-12-20T05:13:12;101070;;;0.3;96.1
76987;BME280;65922;50.086;8.598;2022-12-20T05:14:12;101060;;;0.3;96.1
76987;BME280;65922;50.086;8.598;2022-12-20T05:15:12;101050;;;0.3;96.1
76987;BME280;65922;50.086;8.598;2022-12-20T05:16:12;101060;;;0.3;96.1
76987;BME280;65922;50.086;8.598;2022-12-20T05:17:12;101060;;;0.3;96.1
76987;BME280;65922;50.086;8.598;2022-12-20T05:18:12;101060;;;0.4;96.1
76987;BME280;65922;50.086;8.598;2022-12-20T05:19:12;101050;;;0.4;96.1
76987;BME280;65922;50.086;8.598;2022-12-20T05:20:12;101050;;;0.3;96.1
76987;BME280;65922;50.086;8.598;2022-12-20T05:21:12;101060;;;0.3;96.1
76987;BME280;65922;50.086;8.598;2022-12-20T05:22:13;101060;;;0.4;96.1
76987;BME280;65922;50.086;8.598;2022-12-20T05:23:13;101050;;;0.4;96.1
76987;BME280;65922;50.086;8.598;2022-12-20T05:24:12;101050;;;0.4;96.1
76987;BME280;65922;50.086;8.598;2022-12-20T05:25:13;101050;;;0.4;96.1
76987;BME280;65922;50.086;8.598;2022-12-20T05:26:12;101040;;;0.4;96.2
76987;BME280;65922;50.086;8.598;2022-12-20T05:27:12;101050;;;0.3;96.1
76987;BME280;65922;50.086;8.598;2022-12-20T05:28:12;101060;;;0.4;96.1
76987;BME280;65922;50.086;8.598;2022-12-20T05:29:12;101060;;;0.4;96.1
76987;BME280;65922;50.086;8.598;2022-12-20T05:30:12;101050;;;0.4;96.2
76987;BME280;65922;50.086;8.598;2022-12-20T05:31:12;101050;;;0.4;96.1
76987;BME280;65922;50.086;8.598;2022-12-20T05:32:12;101050;;;0.3;96.2
76987;BME280;65922;50.086;8.598;2022-12-20T05:33:13;101060;;;0.3;96.2
76987;BME280;65922;50.086;8.598;2022-12-20T05:34:12;101060;;;0.4;96.2
76987;BME280;65922;50.086;8.598;2022-12-20T05:35:12;101060;;;0.4;96.2
76987;BME280;65922;50.086;8.598;2022-12-20T05:36:12;101060;;;0.4;96.2
76987;BME280;65922;50.086;8.598;2022-12-20T05:37:14;101050;;;0.4;96.2
76987;BME280;65922;50.086;8.598;2022-12-20T05:38:12;101060;;;0.3;96.2
76987;BME280;65922;50.086;8.598;2022-12-20T05:39:12;101050;;;0.4;96.1
76987;BME280;65922;50.086;8.598;2022-12-20T05:40:12;101040;;;0.3;96.2
76987;BME280;65922;50.086;8.598;2022-12-20T05:41:12;101040;;;0.3;96.1